Vichy, MO

7:15 AM CST on February 11, 2016 (GMT -0600)
Rolla National | | Change Station
CLOSE
Current Station
Airport
Location: Rolla,
Elevation: 1145 ft
Nearby Weather Stations

Elev 1145 ft 38.13 °N, 91.77 °W | Updated 22 minutes ago

Clear
Clear
21 °F
Feels Like 11 °F
N
8
Wind Variable Wind from NE

Today
High -- | Low -- °F
--% Chance of Precip.
Yesterday
High -- | Low -- °F
Precip. -- in
Pressure 30.23 in
Visibility 10.0 miles
Clouds Clear
Windchill 11 °F
Dew Point 17 °F
Humidity 85%
Rainfall 0.00 in
Snow Depth Not available.
7:02 AM 5:40 PM
Waxing Crescent, 12% visible
METAR KVIH 111253Z AUTO 05007KT 10SM CLR M06/M08 A3019 RMK AO2 SLP237 T10611083 $
Pressure 30.23 in
Visibility 10.0 miles
Clouds Clear
Windchill 11 °F
Dew Point 17 °F
Humidity 85%
Rainfall 0.00 in
Snow Depth Not available.
7:02 AM 5:40 PM
Waxing Crescent, 12% visible
METAR KVIH 111253Z AUTO 05007KT 10SM CLR M06/M08 A3019 RMK AO2 SLP237 T10611083 $

10-Day Weather Forecast

Almanac

Astronomy

Feb. 11, 2016 Rise Set
Actual Time
Civil Twilight
Nautical Twilight
Astronomical Twilight
Moon
Length of Visible Light
Length of Day
Tomorrow will be .
, % of the Moon is Illuminated

Today's Extremes

State Highs State Lows

Community

WunderPhotos

Upload Photos

1,892,040 photos uploaded!

WunderBlog® & News

Nearby

Air Quality

  Air Quality AQ Index Pollutant
Not available.

Snow Depth

Station Depth Elevation

Earthquake Activity

City Distance Mag. Time & Date
Minimum magnitude displayed is 2.5.

Coastal Water Temperatures

Place Temperature

Stations

Nearby Weather Stations

Station Location Temp. Windchill Dew Point Humidity Wind Precip. Elev Updated Type
                   

Watches & Warnings

There are currently no watches in effect.